createdAt,value
2023-04-06T00:01:35.883Z,3.3
2023-04-06T00:07:25.798Z,3.6
2023-04-06T00:13:16.630Z,3.6
2023-04-06T00:19:06.493Z,3.5
2023-04-06T00:24:56.924Z,3.1
2023-04-06T00:30:47.685Z,3.5
2023-04-06T00:36:39.332Z,3.5
2023-04-06T00:42:28.678Z,3.4
2023-04-06T00:48:18.585Z,3.5
2023-04-06T00:54:08.050Z,3.1
2023-04-06T00:59:58.163Z,3.1
2023-04-06T01:05:48.322Z,3.1
2023-04-06T01:11:38.988Z,2.8
2023-04-06T01:17:30.163Z,2.8
2023-04-06T01:23:21.318Z,2.8
2023-04-06T01:29:13.523Z,3
2023-04-06T01:35:05.199Z,3.1
2023-04-06T01:40:55.901Z,3.1
2023-04-06T01:46:47.324Z,3
2023-04-06T01:52:39.816Z,3.1
2023-04-06T01:58:31.634Z,3.3
2023-04-06T02:04:23.331Z,3.2
2023-04-06T02:10:13.425Z,3.3
2023-04-06T02:16:05.293Z,3.3
2023-04-06T02:21:57.919Z,3.1
2023-04-06T02:27:49.697Z,3
2023-04-06T02:33:40.564Z,2.9
2023-04-06T02:39:32.092Z,2.9
2023-04-06T02:45:24.664Z,2.9
2023-04-06T02:51:18.219Z,2.5
2023-04-06T02:57:09.242Z,2.4
2023-04-06T03:03:02.887Z,2.7
2023-04-06T03:08:55.556Z,2.8
2023-04-06T03:14:47.174Z,2.5
2023-04-06T03:20:38.891Z,2.5
2023-04-06T03:26:30.807Z,2.4
2023-04-06T03:32:23.784Z,2.3
2023-04-06T03:38:14.888Z,2.1
2023-04-06T03:44:06.357Z,2.3
2023-04-06T03:49:58.204Z,2
2023-04-06T03:55:49.878Z,2.2
2023-04-06T04:01:44.774Z,2
2023-04-06T04:07:38.313Z,2.1
2023-04-06T04:13:30.034Z,2.1
2023-04-06T04:19:23.601Z,2.2
2023-04-06T04:25:15.655Z,2
2023-04-06T04:31:06.904Z,2.2
2023-04-06T04:36:57.440Z,2.1
2023-04-06T04:42:50.123Z,2.3
2023-04-06T04:48:42.578Z,2.3
2023-04-06T04:54:33.252Z,2.5
2023-04-06T05:00:24.837Z,2.5
2023-04-06T05:06:20.672Z,2.5
2023-04-06T05:12:12.693Z,2.5
2023-04-06T05:18:06.364Z,2.4
2023-04-06T05:23:57.955Z,2.6
2023-04-06T05:29:51.125Z,2.7
2023-04-06T05:35:45.946Z,2.7
2023-04-06T05:41:37.430Z,2.8
2023-04-06T05:47:31.365Z,2.9
2023-04-06T05:53:23.555Z,3
2023-04-06T05:59:15.953Z,3.2
2023-04-06T06:05:08.382Z,3.3
2023-04-06T06:11:00.563Z,3.4
2023-04-06T06:16:51.720Z,3.6
2023-04-06T06:22:43.240Z,3.7
2023-04-06T06:28:34.430Z,3.7
2023-04-06T06:34:27.875Z,3.9
2023-04-06T06:40:18.392Z,4
2023-04-06T06:46:09.345Z,4.1
2023-04-06T06:52:03.993Z,4.3
2023-04-06T06:57:53.392Z,4.5
2023-04-06T07:03:49.565Z,4.7
2023-04-06T07:09:41.609Z,4.8
2023-04-06T07:15:34.914Z,5
2023-04-06T07:21:26.013Z,5.3
2023-04-06T07:27:22.167Z,5.4
2023-04-06T07:33:14.412Z,5.7
2023-04-06T07:39:08.593Z,5.9
2023-04-06T07:44:59.474Z,6.1
2023-04-06T07:50:51.829Z,6.4
2023-04-06T07:56:42.842Z,6.7
2023-04-06T08:02:35.518Z,7
2023-04-06T08:08:29.730Z,7.3
2023-04-06T08:14:22.596Z,7.8
2023-04-06T08:20:15.147Z,7.9
2023-04-06T08:26:12.381Z,8.1
2023-04-06T08:33:13.285Z,8.4
2023-04-06T08:39:05.029Z,8.6
2023-04-06T08:44:56.899Z,8.9
2023-04-06T08:50:50.393Z,8.9
2023-04-06T08:56:44.815Z,9.5
2023-04-06T09:02:35.872Z,9.6
2023-04-06T09:08:30.497Z,9.8
2023-04-06T09:14:22.705Z,10.2
2023-04-06T09:20:16.877Z,10.3
2023-04-06T09:26:09.560Z,10.6
2023-04-06T09:32:01.620Z,10.9
2023-04-06T09:37:54.825Z,11.1
2023-04-06T09:43:49.784Z,11.2
2023-04-06T09:49:56.341Z,11.4
2023-04-06T09:55:50.076Z,11.5
2023-04-06T10:01:43.285Z,11.8
2023-04-06T10:07:35.897Z,11.8
2023-04-06T10:14:06.197Z,12.1
2023-04-06T10:19:59.151Z,12.2
2023-04-06T10:25:49.527Z,12.1
2023-04-06T10:31:41.400Z,12.3
2023-04-06T10:37:35.316Z,12.6
2023-04-06T10:43:31.907Z,12.8
2023-04-06T10:49:24.761Z,12.9
2023-04-06T10:55:19.694Z,12.9
2023-04-06T11:01:15.279Z,13
2023-04-06T11:07:28.133Z,13.1
2023-04-06T11:13:19.128Z,13.1
2023-04-06T11:19:12.545Z,13.3
2023-04-06T11:25:03.842Z,13.2
2023-04-06T11:30:56.262Z,13.4
2023-04-06T11:36:58.168Z,13.4
2023-04-06T11:42:47.841Z,13.4
2023-04-06T11:48:39.945Z,13.4
2023-04-06T11:54:29.472Z,13.4
2023-04-06T12:00:20.500Z,13.8
2023-04-06T12:06:26.950Z,13.8
2023-04-06T12:12:21.245Z,14
2023-04-06T12:18:15.520Z,14.1
2023-04-06T12:24:08.028Z,14.2
2023-04-06T12:30:05.012Z,14.3
2023-04-06T12:35:59.478Z,14.4
2023-04-06T12:41:51.033Z,14.4
2023-04-06T12:47:53.103Z,14.4
2023-04-06T12:53:46.957Z,14.5
2023-04-06T12:59:40.515Z,14.2
2023-04-06T13:05:35.184Z,14.2
2023-04-06T13:11:28.323Z,14.1
2023-04-06T13:17:24.387Z,14
2023-04-06T13:23:32.768Z,13.9
2023-04-06T13:29:33.200Z,13.7
2023-04-06T13:35:31.220Z,13.6
2023-04-06T13:41:23.183Z,13.5
2023-04-06T13:47:24.190Z,13.3
2023-04-06T13:53:19.101Z,13.2
2023-04-06T13:59:16.468Z,13.1
2023-04-06T14:05:13.997Z,13
2023-04-06T14:11:19.938Z,12.8
2023-04-06T14:17:22.319Z,13
2023-04-06T14:23:33.883Z,12.9
2023-04-06T14:29:55.660Z,12.9
2023-04-06T14:35:47.531Z,12.6
2023-04-06T14:41:38.483Z,12.5
2023-04-06T14:47:37.545Z,12.4
2023-04-06T14:53:34.408Z,12.2
2023-04-06T14:59:40.584Z,12.1
2023-04-06T15:05:35.231Z,12
2023-04-06T15:11:54.043Z,12
2023-04-06T15:18:06.292Z,11.9
2023-04-06T15:24:07.583Z,12
2023-04-06T15:29:57.396Z,11.8
2023-04-06T15:35:50.837Z,11.7
2023-04-06T15:41:41.089Z,11.4
2023-04-06T15:47:30.625Z,11.3
2023-04-06T15:53:20.594Z,11.3
2023-04-06T15:59:10.688Z,11
2023-04-06T16:05:03.593Z,10.9
2023-04-06T16:10:53.673Z,10.6
2023-04-06T16:16:46.450Z,10.8
2023-04-06T16:22:39.911Z,10.5
2023-04-06T16:28:31.209Z,10.6
2023-04-06T16:34:21.973Z,10.1
2023-04-06T16:40:13.040Z,10
2023-04-06T16:46:04.889Z,10
2023-04-06T16:51:57.406Z,10
2023-04-06T16:57:47.714Z,9.8
2023-04-06T17:03:39.334Z,9.8
2023-04-06T17:15:25.709Z,9.4
2023-04-06T17:21:17.854Z,9.4
2023-04-06T17:27:10.448Z,9.5
2023-04-06T17:33:01.598Z,9.4
2023-04-06T17:38:53.756Z,9.4
2023-04-06T17:44:46.268Z,9.3
2023-04-06T17:50:41.409Z,9.2
2023-04-06T17:56:33.360Z,9.1
2023-04-06T18:02:26.038Z,8.9
2023-04-06T18:08:18.139Z,9
2023-04-06T18:14:11.596Z,8.9
2023-04-06T18:20:04.368Z,8.9
2023-04-06T18:25:59.938Z,8.9
2023-04-06T18:31:53.291Z,8.8
2023-04-06T18:37:46.538Z,8.8
2023-04-06T18:43:38.716Z,8.9
2023-04-06T18:49:33.527Z,8.8
2023-04-06T18:55:25.096Z,8.6
2023-04-06T19:01:17.830Z,8.6
2023-04-06T19:07:11.049Z,8.8
2023-04-06T19:13:08.705Z,8.5
2023-04-06T19:19:00.812Z,8.5
2023-04-06T19:24:53.545Z,8.5
2023-04-06T19:30:48.117Z,8.6
2023-04-06T19:36:41.035Z,8.5
2023-04-06T19:43:42.956Z,8.4
2023-04-06T19:49:33.782Z,8.5
2023-04-06T19:55:24.344Z,8.5
2023-04-06T20:01:17.514Z,8.5
2023-04-06T20:07:09.239Z,8.4
2023-04-06T20:13:00.624Z,8.4
2023-04-06T20:18:52.319Z,8.5
2023-04-06T20:24:43.264Z,8.4
2023-04-06T20:30:36.063Z,8.3
2023-04-06T20:36:27.377Z,8.3
2023-04-06T20:42:19.133Z,8.3
2023-04-06T20:48:10.275Z,8.4
2023-04-06T20:54:02.289Z,8.4
2023-04-06T20:59:54.227Z,8.3
2023-04-06T21:05:45.699Z,8.4
2023-04-06T21:11:36.482Z,8.2
2023-04-06T21:17:28.648Z,8.3
2023-04-06T21:23:19.846Z,8.2
2023-04-06T21:29:11.307Z,8.3
2023-04-06T21:35:02.916Z,8.2
2023-04-06T21:40:55.627Z,8.2
2023-04-06T21:46:48.234Z,8.2
2023-04-06T21:52:40.058Z,8.1
2023-04-06T21:58:31.692Z,8.2
2023-04-06T22:04:23.518Z,8.1
2023-04-06T22:10:16.436Z,8.1
2023-04-06T22:16:09.624Z,8.1
2023-04-06T22:22:00.355Z,8.2
2023-04-06T22:27:52.172Z,8.2
2023-04-06T22:33:43.995Z,8.2
2023-04-06T22:39:34.505Z,8.2
2023-04-06T22:45:28.345Z,8.2
2023-04-06T22:51:21.090Z,8.1
2023-04-06T22:57:13.424Z,8.2
2023-04-06T23:03:04.599Z,8.1
2023-04-06T23:08:57.518Z,8.1
2023-04-06T23:14:50.498Z,8.2
2023-04-06T23:20:42.025Z,8.2
2023-04-06T23:26:33.982Z,8.1
2023-04-06T23:32:25.784Z,8.1
2023-04-06T23:38:18.738Z,8.1
2023-04-06T23:44:10.551Z,8.1
2023-04-06T23:50:02.537Z,8.2
2023-04-06T23:55:54.376Z,8.2
